sensor_id;sensor_type;location;lat;lon;timestamp;pressure;altitude;pressure_sealevel;temperature;humidity
61757;BME280;57225;61.460;24.060;2023-02-19T00:01:42;97577.28;;;-3.95;100.00
61757;BME280;57225;61.460;24.060;2023-02-19T00:04:26;97575.00;;;-3.93;100.00
61757;BME280;57225;61.460;24.060;2023-02-19T00:07:11;97582.75;;;-3.91;100.00
61757;BME280;57225;61.460;24.060;2023-02-19T00:09:55;97586.16;;;-3.98;100.00
61757;BME280;57225;61.460;24.060;2023-02-19T00:12:40;97582.50;;;-4.13;100.00
61757;BME280;57225;61.460;24.060;2023-02-19T00:15:24;97590.34;;;-4.08;100.00
61757;BME280;57225;61.460;24.060;2023-02-19T00:18:09;97583.19;;;-4.19;100.00
61757;BME280;57225;61.460;24.060;2023-02-19T00:20:55;97574.66;;;-4.18;100.00
61757;BME280;57225;61.460;24.060;2023-02-19T00:23:40;97577.75;;;-4.19;100.00
61757;BME280;57225;61.460;24.060;2023-02-19T00:26:25;97577.44;;;-4.14;100.00
61757;BME280;57225;61.460;24.060;2023-02-19T00:29:16;97577.53;;;-4.07;100.00
61757;BME280;57225;61.460;24.060;2023-02-19T00:32:00;97573.66;;;-4.06;100.00
61757;BME280;57225;61.460;24.060;2023-02-19T00:34:45;97567.78;;;-4.08;100.00
61757;BME280;57225;61.460;24.060;2023-02-19T00:37:29;97571.66;;;-4.09;100.00
61757;BME280;57225;61.460;24.060;2023-02-19T00:40:14;97576.28;;;-4.13;100.00
61757;BME280;57225;61.460;24.060;2023-02-19T00:42:58;97579.41;;;-4.11;100.00
61757;BME280;57225;61.460;24.060;2023-02-19T00:45:43;97585.22;;;-4.13;100.00
61757;BME280;57225;61.460;24.060;2023-02-19T00:48:28;97579.41;;;-4.11;100.00
61757;BME280;57225;61.460;24.060;2023-02-19T00:51:13;97584.06;;;-4.12;100.00
61757;BME280;57225;61.460;24.060;2023-02-19T00:53:58;97584.47;;;-4.10;100.00
61757;BME280;57225;61.460;24.060;2023-02-19T00:56:42;97588.03;;;-4.06;100.00
61757;BME280;57225;61.460;24.060;2023-02-19T00:59:26;97590.75;;;-4.06;100.00
61757;BME280;57225;61.460;24.060;2023-02-19T01:02:11;97591.94;;;-4.03;100.00
61757;BME280;57225;61.460;24.060;2023-02-19T01:04:55;97586.50;;;-4.03;100.00
61757;BME280;57225;61.460;24.060;2023-02-19T01:07:40;97584.94;;;-4.04;100.00
61757;BME280;57225;61.460;24.060;2023-02-19T01:10:24;97570.78;;;-4.17;100.00
61757;BME280;57225;61.460;24.060;2023-02-19T01:13:09;97579.41;;;-4.11;100.00
61757;BME280;57225;61.460;24.060;2023-02-19T01:15:55;97577.88;;;-4.09;100.00
61757;BME280;57225;61.460;24.060;2023-02-19T01:18:46;97577.09;;;-4.09;100.00
61757;BME280;57225;61.460;24.060;2023-02-19T01:21:30;97583.31;;;-4.09;100.00
61757;BME280;57225;61.460;24.060;2023-02-19T01:24:15;97582.03;;;-4.18;100.00
61757;BME280;57225;61.460;24.060;2023-02-19T01:26:59;97579.94;;;-4.28;100.00
61757;BME280;57225;61.460;24.060;2023-02-19T01:29:44;97566.72;;;-4.30;100.00
61757;BME280;57225;61.460;24.060;2023-02-19T01:32:28;97564.47;;;-4.24;100.00
61757;BME280;57225;61.460;24.060;2023-02-19T01:35:13;97578.91;;;-4.20;100.00
61757;BME280;57225;61.460;24.060;2023-02-19T01:37:57;97571.53;;;-4.20;100.00
61757;BME280;57225;61.460;24.060;2023-02-19T01:40:42;97575.03;;;-4.19;100.00
61757;BME280;57225;61.460;24.060;2023-02-19T01:43:27;97573.88;;;-4.18;100.00
61757;BME280;57225;61.460;24.060;2023-02-19T01:46:12;97570.78;;;-4.17;100.00
61757;BME280;57225;61.460;24.060;2023-02-19T01:48:58;97568.44;;;-4.18;100.00
61757;BME280;57225;61.460;24.060;2023-02-19T01:51:53;97570.78;;;-4.17;100.00
61757;BME280;57225;61.460;24.060;2023-02-19T01:54:39;97571.56;;;-4.16;100.00
61757;BME280;57225;61.460;24.060;2023-02-19T01:57:30;97573.13;;;-4.15;100.00
61757;BME280;57225;61.460;24.060;2023-02-19T02:00:17;97571.56;;;-4.16;100.00
61757;BME280;57225;61.460;24.060;2023-02-19T02:03:03;97564.78;;;-4.29;100.00
61757;BME280;57225;61.460;24.060;2023-02-19T02:08:56;97565.44;;;-4.39;100.00
61757;BME280;57225;61.460;24.060;2023-02-19T02:12:00;97581.63;;;-4.47;100.00
61757;BME280;57225;61.460;24.060;2023-02-19T02:14:45;97584.91;;;-4.60;100.00
61757;BME280;57225;61.460;24.060;2023-02-19T02:17:53;97592.59;;;-4.66;100.00
61757;BME280;57225;61.460;24.060;2023-02-19T02:30:21;97585.91;;;-4.46;100.00
61757;BME280;57225;61.460;24.060;2023-02-19T02:33:30;97594.59;;;-4.36;100.00
61757;BME280;57225;61.460;24.060;2023-02-19T02:36:18;97596.25;;;-4.28;100.00
61757;BME280;57225;61.460;24.060;2023-02-19T02:39:05;97591.66;;;-4.24;100.00
61757;BME280;57225;61.460;24.060;2023-02-19T02:41:56;97594.84;;;-4.19;100.00
61757;BME280;57225;61.460;24.060;2023-02-19T02:45:24;97594.06;;;-4.19;100.00
61757;BME280;57225;61.460;24.060;2023-02-19T02:48:34;97589.78;;;-4.20;100.00
61757;BME280;57225;61.460;24.060;2023-02-19T02:51:21;97597.94;;;-4.20;100.00
61757;BME280;57225;61.460;24.060;2023-02-19T02:54:20;97596.78;;;-4.19;100.00
61757;BME280;57225;61.460;24.060;2023-02-19T02:57:24;97608.06;;;-4.17;100.00
61757;BME280;57225;61.460;24.060;2023-02-19T03:00:09;97603.47;;;-4.13;100.00
61757;BME280;57225;61.460;24.060;2023-02-19T03:02:55;97612.78;;;-4.14;100.00
61757;BME280;57225;61.460;24.060;2023-02-19T03:06:03;97609.94;;;-4.21;100.00
61757;BME280;57225;61.460;24.060;2023-02-19T03:08:58;97614.25;;;-4.20;100.00
61757;BME280;57225;61.460;24.060;2023-02-19T03:11:48;97615.38;;;-4.21;100.00
61757;BME280;57225;61.460;24.060;2023-02-19T03:14:55;97610.38;;;-4.19;100.00
61757;BME280;57225;61.460;24.060;2023-02-19T03:18:01;97611.06;;;-4.26;100.00
61757;BME280;57225;61.460;24.060;2023-02-19T03:21:06;97618.53;;;-4.19;100.00
61757;BME280;57225;61.460;24.060;2023-02-19T03:23:50;97623.22;;;-4.16;100.00
61757;BME280;57225;61.460;24.060;2023-02-19T03:26:55;97620.50;;;-4.16;100.00
61757;BME280;57225;61.460;24.060;2023-02-19T03:29:44;97627.09;;;-4.17;100.00
61757;BME280;57225;61.460;24.060;2023-02-19T03:32:39;97622.03;;;-4.19;100.00
61757;BME280;57225;61.460;24.060;2023-02-19T03:35:34;97627.84;;;-4.20;100.00
61757;BME280;57225;61.460;24.060;2023-02-19T03:38:21;97628.63;;;-4.20;100.00
61757;BME280;57225;61.460;24.060;2023-02-19T03:41:29;97622.75;;;-4.22;100.00
61757;BME280;57225;61.460;24.060;2023-02-19T03:47:24;97622.38;;;-4.24;100.00
61757;BME280;57225;61.460;24.060;2023-02-19T03:50:13;97625.06;;;-4.24;100.00
61757;BME280;57225;61.460;24.060;2023-02-19T03:53:11;97629.72;;;-4.24;100.00
61757;BME280;57225;61.460;24.060;2023-02-19T03:56:09;97628.94;;;-4.25;100.00
61757;BME280;57225;61.460;24.060;2023-02-19T03:59:04;97629.72;;;-4.24;100.00
61757;BME280;57225;61.460;24.060;2023-02-19T04:02:02;97632.81;;;-4.26;100.00
61757;BME280;57225;61.460;24.060;2023-02-19T04:04:53;97634.38;;;-4.25;100.00
61757;BME280;57225;61.460;24.060;2023-02-19T04:07:45;97637.47;;;-4.26;100.00
61757;BME280;57225;61.460;24.060;2023-02-19T04:10:32;97637.47;;;-4.26;100.00
61757;BME280;57225;61.460;24.060;2023-02-19T04:13:30;97640.97;;;-4.26;100.00
61757;BME280;57225;61.460;24.060;2023-02-19T04:16:21;97643.63;;;-4.29;100.00
61757;BME280;57225;61.460;24.060;2023-02-19T04:19:10;97635.88;;;-4.27;100.00
61757;BME280;57225;61.460;24.060;2023-02-19T04:21:56;97633.91;;;-4.30;100.00
61757;BME280;57225;61.460;24.060;2023-02-19T04:24:52;97637.47;;;-4.26;100.00
61757;BME280;57225;61.460;24.060;2023-02-19T04:27:39;97637.88;;;-4.24;100.00
61757;BME280;57225;61.460;24.060;2023-02-19T04:30:23;97638.66;;;-4.24;100.00
61757;BME280;57225;61.460;24.060;2023-02-19T04:33:08;97638.28;;;-4.22;100.00
61757;BME280;57225;61.460;24.060;2023-02-19T04:35:52;97644.88;;;-4.23;100.00
61757;BME280;57225;61.460;24.060;2023-02-19T04:38:37;97647.59;;;-4.23;100.00
61757;BME280;57225;61.460;24.060;2023-02-19T04:41:21;97632.69;;;-4.33;100.00
61757;BME280;57225;61.460;24.060;2023-02-19T04:44:06;97646.34;;;-4.29;100.00
61757;BME280;57225;61.460;24.060;2023-02-19T04:46:50;97633.50;;;-4.32;100.00
61757;BME280;57225;61.460;24.060;2023-02-19T04:49:34;97638.09;;;-4.36;100.00
61757;BME280;57225;61.460;24.060;2023-02-19T04:52:19;97638.13;;;-4.33;100.00
61757;BME280;57225;61.460;24.060;2023-02-19T04:55:04;97640.06;;;-4.33;100.00
61757;BME280;57225;61.460;24.060;2023-02-19T04:57:48;97645.81;;;-4.38;100.00
61757;BME280;57225;61.460;24.060;2023-02-19T05:00:33;97624.78;;;-4.41;100.00
61757;BME280;57225;61.460;24.060;2023-02-19T05:03:17;97652.84;;;-4.37;100.00
61757;BME280;57225;61.460;24.060;2023-02-19T05:06:03;97642.75;;;-4.37;100.00
61757;BME280;57225;61.460;24.060;2023-02-19T05:08:48;97641.56;;;-4.36;100.00
61757;BME280;57225;61.460;24.060;2023-02-19T05:11:32;97644.38;;;-4.32;100.00
61757;BME280;57225;61.460;24.060;2023-02-19T05:14:17;97643.63;;;-4.29;100.00
61757;BME280;57225;61.460;24.060;2023-02-19T05:17:02;97646.03;;;-4.24;100.00
61757;BME280;57225;61.460;24.060;2023-02-19T05:19:46;97651.41;;;-4.28;100.00
61757;BME280;57225;61.460;24.060;2023-02-19T05:22:31;97664.22;;;-4.28;100.00
61757;BME280;57225;61.460;24.060;2023-02-19T05:25:15;97656.06;;;-4.28;100.00
61757;BME280;57225;61.460;24.060;2023-02-19T05:27:59;97669.25;;;-4.30;100.00
61757;BME280;57225;61.460;24.060;2023-02-19T05:31:04;97663.81;;;-4.30;100.00
61757;BME280;57225;61.460;24.060;2023-02-19T05:33:49;97669.25;;;-4.30;100.00
61757;BME280;57225;61.460;24.060;2023-02-19T05:36:36;97671.59;;;-4.29;100.00
61757;BME280;57225;61.460;24.060;2023-02-19T05:39:20;97677.78;;;-4.32;100.00
61757;BME280;57225;61.460;24.060;2023-02-19T05:42:04;97671.97;;;-4.30;100.00
61757;BME280;57225;61.460;24.060;2023-02-19T05:44:49;97684.38;;;-4.29;100.00
61757;BME280;57225;61.460;24.060;2023-02-19T05:47:33;97682.47;;;-4.29;100.00
61757;BME280;57225;61.460;24.060;2023-02-19T05:50:17;97687.09;;;-4.29;100.00
61757;BME280;57225;61.460;24.060;2023-02-19T05:53:03;97685.97;;;-4.28;100.00
61757;BME280;57225;61.460;24.060;2023-02-19T05:55:48;97685.56;;;-4.30;100.00
61757;BME280;57225;61.460;24.060;2023-02-19T05:58:32;97684.38;;;-4.29;100.00
61757;BME280;57225;61.460;24.060;2023-02-19T06:01:18;97680.88;;;-4.30;100.00
61757;BME280;57225;61.460;24.060;2023-02-19T06:04:03;97687.84;;;-4.32;100.00
61757;BME280;57225;61.460;24.060;2023-02-19T06:06:47;97696.44;;;-4.30;100.00
61757;BME280;57225;61.460;24.060;2023-02-19T06:09:31;97699.56;;;-4.28;100.00
61757;BME280;57225;61.460;24.060;2023-02-19T06:12:16;97700.31;;;-4.31;100.00
61757;BME280;57225;61.460;24.060;2023-02-19T06:15:01;97705.75;;;-4.31;100.00
61757;BME280;57225;61.460;24.060;2023-02-19T06:17:47;97709.59;;;-4.32;100.00
61757;BME280;57225;61.460;24.060;2023-02-19T06:20:32;97705.75;;;-4.31;100.00
61757;BME280;57225;61.460;24.060;2023-02-19T06:23:16;97706.13;;;-4.29;100.00
61757;BME280;57225;61.460;24.060;2023-02-19T06:26:22;97712.38;;;-4.29;100.00
61757;BME280;57225;61.460;24.060;2023-02-19T06:29:07;97715.06;;;-4.29;100.00
61757;BME280;57225;61.460;24.060;2023-02-19T06:31:52;97707.31;;;-4.30;100.00
61757;BME280;57225;61.460;24.060;2023-02-19T06:34:36;97715.50;;;-4.27;100.00
61757;BME280;57225;61.460;24.060;2023-02-19T06:59:14;97733.13;;;-4.17;100.00
61757;BME280;57225;61.460;24.060;2023-02-19T07:02:02;97744.50;;;-4.12;100.00
61757;BME280;57225;61.460;24.060;2023-02-19T07:04:46;97746.47;;;-4.09;100.00
61757;BME280;57225;61.460;24.060;2023-02-19T07:07:31;97744.91;;;-4.10;100.00
61757;BME280;57225;61.460;24.060;2023-02-19T07:10:15;97748.53;;;-4.02;100.00
61757;BME280;57225;61.460;24.060;2023-02-19T07:12:59;97750.53;;;-3.99;100.00
61757;BME280;57225;61.460;24.060;2023-02-19T07:15:44;97759.09;;;-3.97;100.00
61757;BME280;57225;61.460;24.060;2023-02-19T07:18:29;97769.97;;;-3.97;100.00
61757;BME280;57225;61.460;24.060;2023-02-19T07:21:15;97762.34;;;-3.88;100.00
61757;BME280;57225;61.460;24.060;2023-02-19T07:23:59;97766.34;;;-3.82;100.00
61757;BME280;57225;61.460;24.060;2023-02-19T07:26:44;97755.34;;;-3.89;100.00
61757;BME280;57225;61.460;24.060;2023-02-19T07:29:28;97767.47;;;-3.83;100.00
61757;BME280;57225;61.460;24.060;2023-02-19T07:32:13;97770.31;;;-3.76;100.00
61757;BME280;57225;61.460;24.060;2023-02-19T07:34:57;97774.19;;;-3.77;100.00
61757;BME280;57225;61.460;24.060;2023-02-19T07:37:42;97772.59;;;-3.78;100.00
61757;BME280;57225;61.460;24.060;2023-02-19T07:40:26;97781.66;;;-3.70;100.00
61757;BME280;57225;61.460;24.060;2023-02-19T07:43:10;97777.25;;;-3.78;100.00
61757;BME280;57225;61.460;24.060;2023-02-19T07:45:55;97781.50;;;-3.81;100.00
61757;BME280;57225;61.460;24.060;2023-02-19T07:48:41;97780.41;;;-3.76;100.00
61757;BME280;57225;61.460;24.060;2023-02-19T07:51:26;97780.75;;;-3.78;100.00
61757;BME280;57225;61.460;24.060;2023-02-19T07:54:10;97789.69;;;-3.81;100.00
61757;BME280;57225;61.460;24.060;2023-02-19T07:56:55;97788.94;;;-3.78;100.00
61757;BME280;57225;61.460;24.060;2023-02-19T07:59:39;97795.16;;;-3.77;100.00
61757;BME280;57225;61.460;24.060;2023-02-19T08:02:24;97802.28;;;-3.69;100.00
61757;BME280;57225;61.460;24.060;2023-02-19T08:05:29;97808.50;;;-3.69;100.00
61757;BME280;57225;61.460;24.060;2023-02-19T08:08:15;97806.31;;;-3.59;100.00
61757;BME280;57225;61.460;24.060;2023-02-19T08:11:04;97810.28;;;-3.53;100.00
61757;BME280;57225;61.460;24.060;2023-02-19T08:14:07;97804.91;;;-3.50;100.00
61757;BME280;57225;61.460;24.060;2023-02-19T08:16:52;97811.97;;;-3.45;100.00
61757;BME280;57225;61.460;24.060;2023-02-19T08:19:36;97808.06;;;-3.48;100.00
61757;BME280;57225;61.460;24.060;2023-02-19T08:22:20;97822.84;;;-3.45;100.00
61757;BME280;57225;61.460;24.060;2023-02-19T08:25:05;97817.09;;;-3.40;100.00
61757;BME280;57225;61.460;24.060;2023-02-19T08:27:49;97829.56;;;-3.39;100.00
61757;BME280;57225;61.460;24.060;2023-02-19T08:30:34;97826.78;;;-3.43;100.00
61757;BME280;57225;61.460;24.060;2023-02-19T08:33:21;97837.00;;;-3.36;100.00
61757;BME280;57225;61.460;24.060;2023-02-19T08:36:07;97843.16;;;-3.39;100.00
61757;BME280;57225;61.460;24.060;2023-02-19T08:38:52;97840.88;;;-3.37;100.00
61757;BME280;57225;61.460;24.060;2023-02-19T08:41:37;97840.97;;;-3.30;100.00
61757;BME280;57225;61.460;24.060;2023-02-19T08:44:21;97839.41;;;-3.31;100.00
61757;BME280;57225;61.460;24.060;2023-02-19T08:47:06;97842.59;;;-3.26;100.00
61757;BME280;57225;61.460;24.060;2023-02-19T08:49:50;97848.16;;;-3.15;100.00
61757;BME280;57225;61.460;24.060;2023-02-19T08:52:35;97847.88;;;-3.10;100.00
61757;BME280;57225;61.460;24.060;2023-02-19T08:55:19;97850.63;;;-3.06;100.00
61757;BME280;57225;61.460;24.060;2023-02-19T08:58:04;97846.66;;;-3.12;100.00
61757;BME280;57225;61.460;24.060;2023-02-19T09:00:48;97856.88;;;-3.06;100.00
61757;BME280;57225;61.460;24.060;2023-02-19T09:03:33;97859.28;;;-3.01;100.00
61757;BME280;57225;61.460;24.060;2023-02-19T09:06:19;97858.44;;;-3.05;100.00
61757;BME280;57225;61.460;24.060;2023-02-19T09:09:03;97855.97;;;-3.13;100.00
61757;BME280;57225;61.460;24.060;2023-02-19T09:11:47;97855.25;;;-3.10;100.00
61757;BME280;57225;61.460;24.060;2023-02-19T09:14:32;97870.50;;;-3.06;100.00
61757;BME280;57225;61.460;24.060;2023-02-19T09:17:17;97871.22;;;-3.09;100.00
61757;BME280;57225;61.460;24.060;2023-02-19T09:20:02;97870.91;;;-3.04;100.00
61757;BME280;57225;61.460;24.060;2023-02-19T09:22:47;97879.59;;;-2.95;100.00
61757;BME280;57225;61.460;24.060;2023-02-19T09:25:31;97886.47;;;-3.04;100.00
61757;BME280;57225;61.460;24.060;2023-02-19T09:28:16;97877.84;;;-3.10;100.00
61757;BME280;57225;61.460;24.060;2023-02-19T09:31:09;97884.25;;;-2.95;100.00
61757;BME280;57225;61.460;24.060;2023-02-19T09:33:53;97897.63;;;-2.87;100.00
61757;BME280;57225;61.460;24.060;2023-02-19T09:36:38;97897.63;;;-2.87;100.00
61757;BME280;57225;61.460;24.060;2023-02-19T09:39:22;97908.50;;;-2.87;100.00
61757;BME280;57225;61.460;24.060;2023-02-19T09:42:16;97904.31;;;-2.80;100.00
61757;BME280;57225;61.460;24.060;2023-02-19T09:45:03;97904.69;;;-2.82;100.00
61757;BME280;57225;61.460;24.060;2023-02-19T09:47:48;97904.06;;;-2.72;100.00
61757;BME280;57225;61.460;24.060;2023-02-19T09:50:41;97911.56;;;-2.62;100.00
61757;BME280;57225;61.460;24.060;2023-02-19T09:53:32;97908.63;;;-2.46;100.00
61757;BME280;57225;61.460;24.060;2023-02-19T09:56:24;97914.78;;;-2.53;100.00
61757;BME280;57225;61.460;24.060;2023-02-19T09:59:20;97910.78;;;-2.62;100.00
61757;BME280;57225;61.460;24.060;2023-02-19T10:02:17;97918.25;;;-2.56;100.00
61757;BME280;57225;61.460;24.060;2023-02-19T10:05:08;97922.84;;;-2.63;100.00
61757;BME280;57225;61.460;24.060;2023-02-19T10:07:54;97926.88;;;-2.54;100.00
61757;BME280;57225;61.460;24.060;2023-02-19T10:10:39;97926.34;;;-2.63;100.00
61757;BME280;57225;61.460;24.060;2023-02-19T10:13:30;97935.00;;;-2.57;100.00
61757;BME280;57225;61.460;24.060;2023-02-19T10:16:24;97932.16;;;-2.64;100.00
61757;BME280;57225;61.460;24.060;2023-02-19T10:19:10;97940.81;;;-2.59;100.00
61757;BME280;57225;61.460;24.060;2023-02-19T10:21:55;97945.63;;;-2.49;100.00
61757;BME280;57225;61.460;24.060;2023-02-19T10:24:40;97950.09;;;-2.63;100.00
61757;BME280;57225;61.460;24.060;2023-02-19T10:27:30;97953.34;;;-2.54;100.00
61757;BME280;57225;61.460;24.060;2023-02-19T10:30:22;97953.34;;;-2.54;100.00
61757;BME280;57225;61.460;24.060;2023-02-19T10:33:12;97957.34;;;-2.45;100.00
61757;BME280;57225;61.460;24.060;2023-02-19T10:36:03;97948.06;;;-2.40;100.00
61757;BME280;57225;61.460;24.060;2023-02-19T10:38:48;97954.34;;;-2.36;100.00
61757;BME280;57225;61.460;24.060;2023-02-19T10:41:33;97954.75;;;-2.34;100.00
61757;BME280;57225;61.460;24.060;2023-02-19T10:44:25;97967.47;;;-2.45;100.00
61757;BME280;57225;61.460;24.060;2023-02-19T10:47:16;97959.63;;;-2.50;100.00
61757;BME280;57225;61.460;24.060;2023-02-19T10:50:02;97968.31;;;-2.41;100.00
61757;BME280;57225;61.460;24.060;2023-02-19T10:52:51;97976.78;;;-2.50;100.00
61757;BME280;57225;61.460;24.060;2023-02-19T10:55:36;97981.06;;;-2.49;100.00
61757;BME280;57225;61.460;24.060;2023-02-19T10:58:25;97963.50;;;-2.51;100.00
61757;BME280;57225;61.460;24.060;2023-02-19T11:01:16;97985.25;;;-2.28;100.00
61757;BME280;57225;61.460;24.060;2023-02-19T11:04:16;97983.44;;;-2.14;100.00
61757;BME280;57225;61.460;24.060;2023-02-19T11:07:18;97989.66;;;-2.17;100.00
61757;BME280;57225;61.460;24.060;2023-02-19T11:10:04;97986.69;;;-2.05;100.00
61757;BME280;57225;61.460;24.060;2023-02-19T11:12:53;97989.75;;;-2.10;100.00
61757;BME280;57225;61.460;24.060;2023-02-19T11:15:39;97989.00;;;-2.07;100.00
61757;BME280;57225;61.460;24.060;2023-02-19T11:18:25;97967.25;;;-2.33;100.00
61757;BME280;57225;61.460;24.060;2023-02-19T11:21:27;98004.69;;;-2.30;100.00
61757;BME280;57225;61.460;24.060;2023-02-19T11:24:36;98004.06;;;-2.46;100.00
61757;BME280;57225;61.460;24.060;2023-02-19T11:27:23;98005.97;;;-2.50;100.00
61757;BME280;57225;61.460;24.060;2023-02-19T11:30:31;98007.69;;;-2.38;100.00
61757;BME280;57225;61.460;24.060;2023-02-19T11:51:42;98011.50;;;-2.73;100.00
61757;BME280;57225;61.460;24.060;2023-02-19T11:57:38;98029.78;;;-2.47;100.00
61757;BME280;57225;61.460;24.060;2023-02-19T12:00:28;98035.16;;;-2.54;100.00
61757;BME280;57225;61.460;24.060;2023-02-19T12:06:26;98034.28;;;-2.58;100.00
61757;BME280;57225;61.460;24.060;2023-02-19T12:12:35;98037.03;;;-2.85;100.00
61757;BME280;57225;61.460;24.060;2023-02-19T12:15:36;98041.41;;;-2.76;100.00
61757;BME280;57225;61.460;24.060;2023-02-19T12:21:55;98057.75;;;-2.76;100.00
61757;BME280;57225;61.460;24.060;2023-02-19T12:25:24;98056.03;;;-2.88;100.00
61757;BME280;57225;61.460;24.060;2023-02-19T12:28:20;98064.38;;;-2.77;100.00
61757;BME280;57225;61.460;24.060;2023-02-19T12:31:30;98073.41;;;-2.73;100.00
61757;BME280;57225;61.460;24.060;2023-02-19T12:34:34;98070.44;;;-2.88;100.00
61757;BME280;57225;61.460;24.060;2023-02-19T12:54:28;98093.13;;;-3.03;100.00
61757;BME280;57225;61.460;24.060;2023-02-19T12:57:26;98103.00;;;-2.95;100.00
61757;BME280;57225;61.460;24.060;2023-02-19T13:03:50;98107.38;;;-2.90;100.00
61757;BME280;57225;61.460;24.060;2023-02-19T13:09:19;98113.88;;;-2.98;100.00
61757;BME280;57225;61.460;24.060;2023-02-19T13:12:19;98123.09;;;-3.03;100.00
61757;BME280;57225;61.460;24.060;2023-02-19T13:15:19;98137.28;;;-2.94;100.00
61757;BME280;57225;61.460;24.060;2023-02-19T13:18:12;98142.31;;;-2.96;100.00
61757;BME280;57225;61.460;24.060;2023-02-19T13:20:58;98133.66;;;-3.01;100.00
61757;BME280;57225;61.460;24.060;2023-02-19T13:23:44;98136.44;;;-2.98;100.00
61757;BME280;57225;61.460;24.060;2023-02-19T13:29:59;98151.53;;;-3.04;100.00
61757;BME280;57225;61.460;24.060;2023-02-19T13:38:49;98165.06;;;-3.07;100.00
61757;BME280;57225;61.460;24.060;2023-02-19T13:41:47;98167.06;;;-3.04;100.00
61757;BME280;57225;61.460;24.060;2023-02-19T13:44:33;98154.75;;;-3.17;100.00
61757;BME280;57225;61.460;24.060;2023-02-19T13:50:40;98180.88;;;-2.94;100.00
61757;BME280;57225;61.460;24.060;2023-02-19T13:56:36;98200.47;;;-2.88;100.00
61757;BME280;57225;61.460;24.060;2023-02-19T13:59:44;98195.34;;;-2.90;100.00
61757;BME280;57225;61.460;24.060;2023-02-19T14:02:31;98206.00;;;-2.85;100.00
61757;BME280;57225;61.460;24.060;2023-02-19T14:08:56;98222.56;;;-3.12;100.00
61757;BME280;57225;61.460;24.060;2023-02-19T14:17:38;98230.09;;;-3.25;100.00
61757;BME280;57225;61.460;24.060;2023-02-19T14:20:39;98241.69;;;-3.28;100.00
61757;BME280;57225;61.460;24.060;2023-02-19T14:23:23;98245.84;;;-3.34;100.00
61757;BME280;57225;61.460;24.060;2023-02-19T14:26:08;98240.50;;;-3.31;100.00
61757;BME280;57225;61.460;24.060;2023-02-19T14:28:53;98244.34;;;-3.32;100.00
61757;BME280;57225;61.460;24.060;2023-02-19T14:31:38;98245.28;;;-3.43;100.00
61757;BME280;57225;61.460;24.060;2023-02-19T14:34:23;98253.00;;;-3.45;100.00
61757;BME280;57225;61.460;24.060;2023-02-19T14:37:16;98254.53;;;-3.48;100.00
61757;BME280;57225;61.460;24.060;2023-02-19T14:40:03;98262.75;;;-3.44;100.00
61757;BME280;57225;61.460;24.060;2023-02-19T14:42:50;98263.19;;;-3.42;100.00
61757;BME280;57225;61.460;24.060;2023-02-19T14:45:57;98263.34;;;-3.35;100.00
61757;BME280;57225;61.460;24.060;2023-02-19T14:48:44;98274.28;;;-3.51;100.00
61757;BME280;57225;61.460;24.060;2023-02-19T14:51:35;98266.56;;;-3.65;100.00
61757;BME280;57225;61.460;24.060;2023-02-19T14:55:28;98270.81;;;-3.67;100.00
61757;BME280;57225;61.460;24.060;2023-02-19T14:57:55;98282.03;;;-3.69;100.00
61757;BME280;57225;61.460;24.060;2023-02-19T15:00:41;98273.88;;;-3.69;100.00
61757;BME280;57225;61.460;24.060;2023-02-19T15:03:34;98288.28;;;-3.68;100.00
61757;BME280;57225;61.460;24.060;2023-02-19T15:06:18;98288.47;;;-3.77;100.00
61757;BME280;57225;61.460;24.060;2023-02-19T15:09:05;98297.25;;;-3.83;100.00
61757;BME280;57225;61.460;24.060;2023-02-19T15:11:50;98304.03;;;-3.93;100.00
61757;BME280;57225;61.460;24.060;2023-02-19T15:14:35;98311.28;;;-3.97;100.00
61757;BME280;57225;61.460;24.060;2023-02-19T15:17:30;98308.75;;;-3.90;100.00
61757;BME280;57225;61.460;24.060;2023-02-19T15:20:18;98314.47;;;-3.95;100.00
61757;BME280;57225;61.460;24.060;2023-02-19T15:23:07;98320.41;;;-3.89;100.00
61757;BME280;57225;61.460;24.060;2023-02-19T15:25:52;98323.84;;;-4.08;100.00
61757;BME280;57225;61.460;24.060;2023-02-19T15:28:36;98328.22;;;-4.03;100.00
61757;BME280;57225;61.460;24.060;2023-02-19T15:31:21;98329.72;;;-4.06;100.00
61757;BME280;57225;61.460;24.060;2023-02-19T15:34:15;98327.44;;;-4.04;100.00
61757;BME280;57225;61.460;24.060;2023-02-19T15:37:01;98336.31;;;-4.07;100.00
61757;BME280;57225;61.460;24.060;2023-02-19T15:39:47;98325.66;;;-4.28;100.00
61757;BME280;57225;61.460;24.060;2023-02-19T15:42:34;98349.47;;;-4.09;100.00
61757;BME280;57225;61.460;24.060;2023-02-19T15:45:22;98351.84;;;-4.08;100.00
61757;BME280;57225;61.460;24.060;2023-02-19T15:48:39;98361.66;;;-4.03;100.00
61757;BME280;57225;61.460;24.060;2023-02-19T15:51:39;98363.41;;;-4.11;100.00
61757;BME280;57225;61.460;24.060;2023-02-19T15:54:29;98374.19;;;-4.14;100.00
61757;BME280;57225;61.460;24.060;2023-02-19T15:57:21;98380.78;;;-4.15;100.00
61757;BME280;57225;61.460;24.060;2023-02-19T16:00:18;98384.53;;;-4.20;100.00
61757;BME280;57225;61.460;24.060;2023-02-19T16:03:04;98372.88;;;-4.20;100.00
61757;BME280;57225;61.460;24.060;2023-02-19T16:06:01;98388.31;;;-4.09;100.00
61757;BME280;57225;61.460;24.060;2023-02-19T16:11:52;98391.38;;;-4.10;100.00
61757;BME280;57225;61.460;24.060;2023-02-19T16:14:37;98395.97;;;-4.14;100.00
61757;BME280;57225;61.460;24.060;2023-02-19T16:17:21;98396.63;;;-4.17;100.00
61757;BME280;57225;61.460;24.060;2023-02-19T16:20:23;98397.09;;;-4.15;100.00
61757;BME280;57225;61.460;24.060;2023-02-19T16:23:12;98405.25;;;-4.15;100.00
61757;BME280;57225;61.460;24.060;2023-02-19T16:25:59;98412.19;;;-4.18;100.00
61757;BME280;57225;61.460;24.060;2023-02-19T16:28:49;98411.13;;;-4.13;100.00
61757;BME280;57225;61.460;24.060;2023-02-19T16:31:35;98418.16;;;-4.12;100.00
61757;BME280;57225;61.460;24.060;2023-02-19T16:34:30;98426.31;;;-4.12;100.00